Time;durP1;ratioP1;P1;durP2;ratioP2;P2;SDS_P1;SDS_P2;PMS_P1;PMS_P2;Temp;Humidity;BMP_temperature;BMP_pressure;BME280_temperature;BME280_humidity;BME280_pressure;Samples;Min_cycle;Max_cycle;Signal;HPM_P1;HPM_P2
2023/06/15 00:00:38;0.00;0.00;0.62;0.00;0.00;0.62;4.93;3.40;;;31.30;18.70;;;;;;2243560;61;20369;-66
2023/06/15 00:03:23;0.00;0.00;0.62;0.00;0.00;0.62;3.43;3.03;;;31.30;18.60;;;;;;2243723;61;20368;-66
2023/06/15 00:06:09;0.00;0.00;0.62;0.00;0.00;0.62;3.30;2.87;;;31.30;18.70;;;;;;2243951;61;20380;-66
2023/06/15 00:08:54;0.00;0.00;0.62;0.00;0.00;0.62;3.03;2.73;;;31.30;18.60;;;;;;2243606;61;20818;-66
2023/06/15 00:11:39;0.00;0.00;0.62;0.00;0.00;0.62;3.73;2.87;;;31.30;18.60;;;;;;2243546;61;20431;-66
2023/06/15 00:14:23;0.00;0.00;0.62;0.00;0.00;0.62;4.30;3.60;;;31.20;18.60;;;;;;2243472;61;20456;-66
2023/06/15 00:17:11;0.00;0.00;0.62;0.00;0.00;0.62;3.40;3.00;;;31.20;18.60;;;;;;2243696;61;20549;-66
2023/06/15 00:19:57;0.00;0.00;0.62;0.00;0.00;0.62;3.40;3.10;;;31.20;18.60;;;;;;2244131;61;20779;-65
2023/06/15 00:22:45;0.00;0.00;0.62;0.00;0.00;0.62;3.50;3.20;;;31.20;18.60;;;;;;2243003;61;20384;-66
2023/06/15 00:25:33;0.00;0.00;0.62;0.00;0.00;0.62;2.90;2.67;;;31.20;18.60;;;;;;2243788;61;20377;-66
2023/06/15 00:28:17;0.00;0.00;0.62;0.00;0.00;0.62;3.13;2.80;;;31.20;18.60;;;;;;2243693;61;20704;-66
2023/06/15 00:31:06;0.00;0.00;0.62;0.00;0.00;0.62;3.33;2.73;;;31.20;18.60;;;;;;2243589;61;20380;-65
2023/06/15 00:33:52;0.00;0.00;0.62;0.00;0.00;0.62;3.20;2.90;;;31.20;18.60;;;;;;2243248;61;20412;-66
2023/06/15 00:36:37;0.00;0.00;0.62;0.00;0.00;0.62;3.10;2.80;;;31.20;18.60;;;;;;2243755;61;20372;-66
2023/06/15 00:39:24;0.00;0.00;0.62;0.00;0.00;0.62;3.33;3.03;;;31.20;18.60;;;;;;2244470;61;20384;-64
2023/06/15 00:42:09;0.00;0.00;0.62;0.00;0.00;0.62;3.23;2.67;;;31.20;18.60;;;;;;2243706;61;20393;-64
2023/06/15 00:44:53;0.00;0.00;0.62;0.00;0.00;0.62;4.70;3.80;;;31.20;18.60;;;;;;2244357;61;20360;-64
2023/06/15 00:47:41;0.00;0.00;0.62;0.00;0.00;0.62;3.53;3.00;;;31.10;18.60;;;;;;2246925;61;20651;-68
2023/06/15 00:50:30;0.00;0.00;0.62;0.00;0.00;0.62;2.43;2.23;;;31.10;18.60;;;;;;2248432;61;20898;-65
2023/06/15 00:53:15;0.00;0.00;0.62;0.00;0.00;0.62;3.90;2.93;;;31.10;18.60;;;;;;2244256;61;21083;-64
2023/06/15 00:56:02;0.00;0.00;0.62;0.00;0.00;0.62;2.97;2.57;;;31.10;18.60;;;;;;2244532;61;20369;-65
2023/06/15 00:58:47;0.00;0.00;0.62;0.00;0.00;0.62;3.07;2.80;;;31.10;18.70;;;;;;2244365;61;20423;-64
2023/06/15 01:01:32;0.00;0.00;0.62;0.00;0.00;0.62;2.90;2.63;;;31.10;18.70;;;;;;2243502;61;20384;-64
2023/06/15 01:04:17;0.00;0.00;0.62;0.00;0.00;0.62;3.50;2.63;;;31.10;18.70;;;;;;2244536;61;20492;-64
2023/06/15 01:07:02;0.00;0.00;0.62;0.00;0.00;0.62;4.03;2.70;;;31.10;18.60;;;;;;2244317;61;20365;-65
2023/06/15 01:09:48;0.00;0.00;0.62;0.00;0.00;0.62;2.87;2.60;;;31.10;18.60;;;;;;2244353;61;20377;-64
2023/06/15 01:12:40;0.00;0.00;0.62;0.00;0.00;0.62;2.97;2.67;;;31.10;18.70;;;;;;2243653;61;20838;-64
2023/06/15 01:15:25;0.00;0.00;0.62;0.00;0.00;0.62;3.20;2.77;;;31.10;18.70;;;;;;2244048;61;20361;-64
2023/06/15 01:18:19;0.00;0.00;0.62;0.00;0.00;0.62;3.30;2.50;;;31.10;18.70;;;;;;2244093;61;20946;-65
2023/06/15 01:21:06;0.00;0.00;0.62;0.00;0.00;0.62;3.50;3.07;;;31.10;18.70;;;;;;2244182;61;20377;-64
2023/06/15 01:24:18;0.00;0.00;0.62;0.00;0.00;0.62;2.90;2.60;;;31.10;18.70;;;;;;2244167;61;20946;-65
2023/06/15 01:27:05;0.00;0.00;0.62;0.00;0.00;0.62;4.20;2.93;;;31.10;18.70;;;;;;2244342;61;20377;-65
2023/06/15 01:29:52;0.00;0.00;0.62;0.00;0.00;0.62;3.00;2.70;;;31.00;18.60;;;;;;2243909;61;20931;-65
2023/06/15 01:32:37;0.00;0.00;0.62;0.00;0.00;0.62;3.37;3.07;;;31.10;18.70;;;;;;2243698;61;20376;-65
2023/06/15 01:35:22;0.00;0.00;0.62;0.00;0.00;0.62;3.20;2.90;;;31.00;18.60;;;;;;2243666;61;20455;-65
2023/06/15 01:38:07;0.00;0.00;0.62;0.00;0.00;0.62;3.77;3.07;;;31.00;18.70;;;;;;2244049;61;20905;-66
2023/06/15 01:40:53;0.00;0.00;0.62;0.00;0.00;0.62;2.73;2.53;;;31.00;18.70;;;;;;2244597;61;20974;-65
2023/06/15 01:43:42;0.00;0.00;0.62;0.00;0.00;0.62;2.70;2.50;;;31.00;18.70;;;;;;2243719;61;20376;-65
2023/06/15 01:46:28;0.00;0.00;0.62;0.00;0.00;0.62;2.87;2.53;;;31.00;18.70;;;;;;2244438;61;20388;-65
2023/06/15 01:49:13;0.00;0.00;0.62;0.00;0.00;0.62;3.60;2.53;;;31.00;18.70;;;;;;2247669;61;20363;-66
2023/06/15 01:51:58;0.00;0.00;0.62;0.00;0.00;0.62;2.70;2.20;;;31.00;18.70;;;;;;2246379;61;20974;-65
2023/06/15 01:54:43;0.00;0.00;0.62;0.00;0.00;0.62;2.93;2.40;;;31.00;18.70;;;;;;2243829;61;20388;-65
2023/06/15 01:57:28;0.00;0.00;0.62;0.00;0.00;0.62;3.00;2.70;;;31.00;18.70;;;;;;2243909;61;20416;-65
2023/06/15 02:00:16;0.00;0.00;0.62;0.00;0.00;0.62;2.83;2.50;;;31.00;18.70;;;;;;2243725;61;20365;-64
2023/06/15 02:03:01;0.00;0.00;0.62;0.00;0.00;0.62;2.83;2.53;;;31.00;18.70;;;;;;2244140;61;20368;-65
2023/06/15 02:05:46;0.00;0.00;0.62;0.00;0.00;0.62;2.90;2.70;;;31.00;18.70;;;;;;2243754;61;20955;-65
2023/06/15 02:08:33;0.00;0.00;0.62;0.00;0.00;0.62;3.50;3.20;;;31.00;18.70;;;;;;2244413;61;20372;-65
2023/06/15 02:11:18;0.00;0.00;0.62;0.00;0.00;0.62;2.60;2.30;;;31.00;18.70;;;;;;2243811;61;20420;-65
2023/06/15 02:14:05;0.00;0.00;0.62;0.00;0.00;0.62;2.77;2.57;;;31.00;19.20;;;;;;2243316;61;20444;-65
2023/06/15 02:16:52;0.00;0.00;0.62;0.00;0.00;0.62;3.20;2.90;;;31.00;18.70;;;;;;2244060;61;20384;-66
2023/06/15 02:19:36;0.00;0.00;0.62;0.00;0.00;0.62;2.90;2.60;;;31.00;18.70;;;;;;2244080;61;20493;-65
2023/06/15 02:22:22;0.00;0.00;0.62;0.00;0.00;0.62;2.80;2.50;;;31.00;18.70;;;;;;2243396;61;20449;-66
2023/06/15 02:25:08;0.00;0.00;0.62;0.00;0.00;0.62;3.70;2.90;;;31.00;18.70;;;;;;2243967;61;20364;-65
2023/06/15 02:27:53;0.00;0.00;0.62;0.00;0.00;0.62;3.53;3.10;;;31.00;18.70;;;;;;2244087;61;20365;-66
2023/06/15 02:30:38;0.00;0.00;0.62;0.00;0.00;0.62;3.10;2.33;;;31.00;18.70;;;;;;2243852;61;20385;-69
2023/06/15 02:33:25;0.00;0.00;0.62;0.00;0.00;0.62;2.70;2.30;;;31.00;18.70;;;;;;2243199;61;20420;-65
2023/06/15 02:36:19;0.00;0.00;0.62;0.00;0.00;0.62;3.10;2.80;;;31.00;18.70;;;;;;2243637;61;20392;-65
2023/06/15 02:39:06;0.00;0.00;0.62;0.00;0.00;0.62;2.60;2.40;;;31.00;18.70;;;;;;2243715;61;20427;-65
2023/06/15 02:41:51;0.00;0.00;0.62;0.00;0.00;0.62;2.57;2.37;;;31.00;18.70;;;;;;2243047;61;20581;-65
2023/06/15 02:44:37;0.00;0.00;0.62;0.00;0.00;0.62;3.70;2.90;;;31.00;18.70;;;;;;2243489;61;20913;-65
2023/06/15 02:47:23;0.00;0.00;0.62;0.00;0.00;0.62;3.77;2.83;;;31.00;18.70;;;;;;2244938;61;20408;-65
2023/06/15 02:50:10;0.00;0.00;0.62;0.00;0.00;0.62;3.00;2.70;;;31.00;18.70;;;;;;2244621;61;20755;-65
2023/06/15 02:53:00;0.00;0.00;0.62;0.00;0.00;0.62;2.90;2.60;;;30.90;18.70;;;;;;2243333;61;20877;-65
2023/06/15 02:55:46;0.00;0.00;0.62;0.00;0.00;0.62;5.83;2.90;;;31.00;18.70;;;;;;2243563;61;20372;-65
2023/06/15 02:58:32;0.00;0.00;0.62;0.00;0.00;0.62;3.00;2.70;;;31.00;18.70;;;;;;2243445;61;20372;-65
2023/06/15 03:01:36;0.00;0.00;0.62;0.00;0.00;0.62;2.30;2.10;;;30.90;18.70;;;;;;2243502;61;20404;-65
2023/06/15 03:04:23;0.00;0.00;0.62;0.00;0.00;0.62;3.50;3.20;;;31.00;18.70;;;;;;2243377;61;20370;-69
2023/06/15 03:07:16;0.00;0.00;0.62;0.00;0.00;0.62;3.70;2.93;;;30.90;18.70;;;;;;2240875;61;20365;-65
2023/06/15 03:10:24;0.00;0.00;0.62;0.00;0.00;0.62;2.97;2.67;;;30.90;18.70;;;;;;2242362;61;20423;-65
2023/06/15 03:13:09;0.00;0.00;0.62;0.00;0.00;0.62;3.73;3.33;;;30.90;18.70;;;;;;2243233;61;20372;-65
2023/06/15 03:15:54;0.00;0.00;0.62;0.00;0.00;0.62;3.37;2.97;;;30.90;18.70;;;;;;2244186;61;20498;-65
2023/06/15 03:18:40;0.00;0.00;0.62;0.00;0.00;0.62;3.10;2.77;;;30.90;18.70;;;;;;2243312;61;20369;-65
2023/06/15 03:21:25;0.00;0.00;0.62;0.00;0.00;0.62;3.70;2.90;;;30.90;18.70;;;;;;2243147;61;20858;-64
2023/06/15 03:24:16;0.00;0.00;0.62;0.00;0.00;0.62;3.73;2.63;;;30.90;18.70;;;;;;2243631;61;20357;-65
2023/06/15 03:27:03;0.00;0.00;0.62;0.00;0.00;0.62;2.63;2.43;;;30.90;18.70;;;;;;2240697;61;20899;-65
2023/06/15 03:29:49;0.00;0.00;0.62;0.00;0.00;0.62;2.70;2.50;;;30.90;18.80;;;;;;2243813;61;20626;-65
2023/06/15 03:32:34;0.00;0.00;0.62;0.00;0.00;0.62;3.30;3.00;;;30.90;18.80;;;;;;2243249;61;20381;-65
2023/06/15 03:35:20;0.00;0.00;0.62;0.00;0.00;0.62;3.57;2.93;;;30.90;18.80;;;;;;2243291;61;20955;-65
2023/06/15 03:38:05;0.00;0.00;0.62;0.00;0.00;0.62;3.10;2.80;;;30.90;18.80;;;;;;2243596;61;20392;-65
2023/06/15 03:40:53;0.00;0.00;0.62;0.00;0.00;0.62;2.67;2.30;;;30.90;18.80;;;;;;2243414;61;20427;-65
2023/06/15 03:43:38;0.00;0.00;0.62;0.00;0.00;0.62;3.40;3.10;;;30.90;18.90;;;;;;2243012;61;20361;-65
2023/06/15 03:46:23;0.00;0.00;0.62;0.00;0.00;0.62;3.00;2.70;;;30.80;18.80;;;;;;2243491;61;20878;-65
2023/06/15 03:49:10;0.00;0.00;0.62;0.00;0.00;0.62;3.70;3.10;;;30.80;18.80;;;;;;2243246;61;20902;-65
2023/06/15 03:51:57;0.00;0.00;0.62;0.00;0.00;0.62;3.37;3.07;;;30.80;18.80;;;;;;2241050;61;20416;-65
2023/06/15 03:54:42;0.00;0.00;0.62;0.00;0.00;0.62;3.10;2.80;;;30.80;18.90;;;;;;2244717;61;20920;-65
2023/06/15 03:57:29;0.00;0.00;0.62;0.00;0.00;0.62;3.43;3.13;;;30.80;18.90;;;;;;2244509;61;20380;-65
2023/06/15 04:00:14;0.00;0.00;0.62;0.00;0.00;0.62;3.40;3.10;;;30.80;18.90;;;;;;2244915;61;20375;-66
2023/06/15 04:03:04;0.00;0.00;0.62;0.00;0.00;0.62;3.03;2.63;;;30.80;18.90;;;;;;2243870;61;20473;-66
2023/06/15 04:05:49;0.00;0.00;0.62;0.00;0.00;0.62;2.93;2.63;;;30.80;18.90;;;;;;2244444;61;20507;-65
2023/06/15 04:08:37;0.00;0.00;0.62;0.00;0.00;0.62;3.40;3.03;;;30.80;18.90;;;;;;2247818;61;20411;-65
2023/06/15 04:11:22;0.00;0.00;0.62;0.00;0.00;0.62;3.33;3.03;;;30.80;18.90;;;;;;2247785;61;20447;-65
2023/06/15 04:14:09;0.00;0.00;0.62;0.00;0.00;0.62;3.27;2.97;;;30.80;18.90;;;;;;2245316;61;20968;-65
2023/06/15 04:16:54;0.00;0.00;0.62;0.00;0.00;0.62;3.63;3.33;;;30.80;18.90;;;;;;2245603;61;20426;-65
2023/06/15 04:19:39;0.00;0.00;0.62;0.00;0.00;0.62;3.30;2.97;;;30.80;18.90;;;;;;2244904;61;20824;-66
2023/06/15 04:22:25;0.00;0.00;0.62;0.00;0.00;0.62;3.60;3.30;;;30.80;19.00;;;;;;2248249;61;20387;-65
2023/06/15 04:25:10;0.00;0.00;0.62;0.00;0.00;0.62;3.37;3.07;;;30.80;19.00;;;;;;2245103;61;20886;-68
2023/06/15 04:27:55;0.00;0.00;0.62;0.00;0.00;0.62;3.13;2.80;;;30.80;19.00;;;;;;2245162;61;20440;-65
2023/06/15 04:30:47;0.00;0.00;0.62;0.00;0.00;0.62;3.20;2.90;;;30.80;19.00;;;;;;2245413;61;20455;-65
2023/06/15 04:33:36;0.00;0.00;0.62;0.00;0.00;0.62;3.90;3.53;;;30.80;19.00;;;;;;2244564;61;20438;-65
2023/06/15 04:36:21;0.00;0.00;0.62;0.00;0.00;0.62;3.50;3.20;;;30.80;19.00;;;;;;2244984;61;20492;-65
2023/06/15 04:39:07;0.00;0.00;0.62;0.00;0.00;0.62;3.70;3.40;;;30.80;19.00;;;;;;2245383;61;20494;-65
2023/06/15 04:41:54;0.00;0.00;0.62;0.00;0.00;0.62;3.40;3.10;;;30.80;19.10;;;;;;2244806;61;20383;-65
2023/06/15 04:44:39;0.00;0.00;0.62;0.00;0.00;0.62;3.93;3.50;;;30.80;19.00;;;;;;2248479;61;20444;-65
2023/06/15 04:47:26;0.00;0.00;0.62;0.00;0.00;0.62;3.60;3.30;;;30.80;19.00;;;;;;2244842;61;20375;-64
2023/06/15 04:50:13;0.00;0.00;0.62;0.00;0.00;0.62;3.87;3.47;;;30.80;19.00;;;;;;2245149;61;20372;-65
2023/06/15 04:52:59;0.00;0.00;0.62;0.00;0.00;0.62;4.23;3.13;;;30.80;19.00;;;;;;2243337;61;20477;-65
2023/06/15 04:55:45;0.00;0.00;0.62;0.00;0.00;0.62;3.43;3.00;;;30.80;19.00;;;;;;2243701;61;20388;-66
2023/06/15 04:58:30;0.00;0.00;0.62;0.00;0.00;0.62;3.93;3.33;;;30.80;19.10;;;;;;2243938;61;20385;-65
2023/06/15 05:01:15;0.00;0.00;0.62;0.00;0.00;0.62;3.70;3.40;;;30.80;19.10;;;;;;2244007;61;20938;-65
2023/06/15 05:04:03;0.00;0.00;0.62;0.00;0.00;0.62;3.57;3.07;;;30.80;19.10;;;;;;2243728;61;20854;-65
2023/06/15 05:06:48;0.00;0.00;0.62;0.00;0.00;0.62;4.17;3.77;;;30.80;19.10;;;;;;2244117;61;20800;-64
2023/06/15 05:09:34;0.00;0.00;0.62;0.00;0.00;0.62;4.30;3.90;;;30.70;19.00;;;;;;2243702;61;20368;-69
2023/06/15 05:12:23;0.00;0.00;0.62;0.00;0.00;0.62;4.60;3.30;;;30.70;19.00;;;;;;2243501;61;20794;-65
2023/06/15 05:15:08;0.00;0.00;0.62;0.00;0.00;0.62;3.17;2.87;;;30.70;19.00;;;;;;2244058;61;20850;-65
2023/06/15 05:17:53;0.00;0.00;0.62;0.00;0.00;0.62;3.60;3.30;;;30.70;19.10;;;;;;2243916;61;20439;-65
2023/06/15 05:20:40;0.00;0.00;0.62;0.00;0.00;0.62;3.00;2.70;;;30.70;19.00;;;;;;2243613;61;20439;-65
2023/06/15 05:23:27;0.00;0.00;0.62;0.00;0.00;0.62;4.00;3.60;;;30.70;19.00;;;;;;2243611;61;20365;-65
2023/06/15 05:26:12;0.00;0.00;0.62;0.00;0.00;0.62;3.33;3.03;;;30.70;19.00;;;;;;2243693;61;20448;-65
2023/06/15 05:28:57;0.00;0.00;0.62;0.00;0.00;0.62;3.40;3.10;;;30.70;19.00;;;;;;2243980;61;20357;-65
2023/06/15 05:31:43;0.00;0.00;0.62;0.00;0.00;0.62;3.90;3.30;;;30.70;19.00;;;;;;2243055;61;20409;-65
2023/06/15 05:34:28;0.00;0.00;0.62;0.00;0.00;0.62;4.20;3.60;;;30.80;19.10;;;;;;2243586;61;20468;-65
2023/06/15 05:37:15;0.00;0.00;0.62;0.00;0.00;0.62;3.50;3.03;;;30.70;19.00;;;;;;2244244;61;20423;-65
2023/06/15 05:40:00;0.00;0.00;0.62;0.00;0.00;0.62;4.43;2.87;;;30.70;19.00;;;;;;2243625;61;20907;-66
2023/06/15 05:42:45;0.00;0.00;0.62;0.00;0.00;0.62;3.30;2.87;;;30.70;19.00;;;;;;2243215;61;20802;-66
2023/06/15 05:45:30;0.00;0.00;0.62;0.00;0.00;0.62;3.60;3.30;;;30.70;19.10;;;;;;2244071;61;20368;-65
2023/06/15 05:48:19;0.00;0.00;0.62;0.00;0.00;0.62;3.63;3.30;;;30.70;19.60;;;;;;2244627;61;20399;-65
2023/06/15 05:51:04;0.00;0.00;0.62;0.00;0.00;0.62;3.90;3.30;;;30.70;19.00;;;;;;2245400;61;20438;-65
2023/06/15 05:53:51;0.00;0.00;0.62;0.00;0.00;0.62;3.70;3.40;;;30.70;19.10;;;;;;2534644;46;20934;-65
2023/06/15 05:56:37;0.00;0.00;0.62;0.00;0.00;0.62;3.60;3.30;;;30.70;19.00;;;;;;2240929;61;20431;-65
2023/06/15 05:59:21;0.00;0.00;0.62;0.00;0.00;0.62;3.70;2.90;;;30.70;19.00;;;;;;2241120;61;20388;-65
2023/06/15 06:02:07;0.00;0.00;0.62;0.00;0.00;0.62;3.80;3.23;;;30.70;19.00;;;;;;2243635;61;20799;-65
2023/06/15 06:04:54;0.00;0.00;0.62;0.00;0.00;0.62;3.50;3.20;;;30.70;19.00;;;;;;2243530;61;20389;-65
2023/06/15 06:07:39;0.00;0.00;0.62;0.00;0.00;0.62;7.63;3.37;;;30.70;19.00;;;;;;2244541;61;20380;-66
2023/06/15 06:10:26;0.00;0.00;0.62;0.00;0.00;0.62;3.87;3.53;;;30.70;19.10;;;;;;2240448;61;20412;-65
2023/06/15 06:13:22;0.00;0.00;0.62;0.00;0.00;0.62;3.23;2.93;;;30.70;19.10;;;;;;2240947;61;20435;-64
2023/06/15 06:16:08;0.00;0.00;0.62;0.00;0.00;0.62;3.67;3.10;;;30.70;19.00;;;;;;2240881;61;20376;-65
2023/06/15 06:18:52;0.00;0.00;0.62;0.00;0.00;0.62;3.17;2.87;;;30.70;19.10;;;;;;2244007;61;20372;-65
2023/06/15 06:21:37;0.00;0.00;0.62;0.00;0.00;0.62;3.83;3.53;;;30.70;19.00;;;;;;2240800;61;20791;-65
2023/06/15 06:24:21;0.00;0.00;0.62;0.00;0.00;0.62;4.00;3.00;;;30.70;19.10;;;;;;2243880;61;20356;-65
2023/06/15 06:27:09;0.00;0.00;0.62;0.00;0.00;0.62;3.97;3.57;;;30.70;19.10;;;;;;2240901;61;20412;-65
2023/06/15 06:29:54;0.00;0.00;0.62;0.00;0.00;0.62;3.40;3.10;;;30.70;19.10;;;;;;2244168;61;20453;-65
2023/06/15 06:32:39;0.00;0.00;0.62;0.00;0.00;0.62;3.87;3.10;;;30.70;19.10;;;;;;2243354;61;21022;-66
2023/06/15 06:35:24;0.00;0.00;0.62;0.00;0.00;0.62;3.70;3.40;;;30.70;19.10;;;;;;2247867;61;20786;-64
2023/06/15 06:38:09;0.00;0.00;0.62;0.00;0.00;0.62;5.03;3.60;;;30.70;19.10;;;;;;2247891;61;20914;-65
2023/06/15 06:40:54;0.00;0.00;0.62;0.00;0.00;0.62;3.57;3.27;;;30.70;19.10;;;;;;2248008;61;20387;-65
2023/06/15 06:43:40;0.00;0.00;0.62;0.00;0.00;0.62;5.33;3.93;;;30.70;19.10;;;;;;2247783;61;20882;-65
2023/06/15 06:46:25;0.00;0.00;0.62;0.00;0.00;0.62;3.57;3.13;;;30.70;19.10;;;;;;2247790;61;20380;-65
2023/06/15 06:49:10;0.00;0.00;0.62;0.00;0.00;0.62;3.50;3.20;;;30.70;19.10;;;;;;2243789;61;20415;-65
2023/06/15 06:51:54;0.00;0.00;0.62;0.00;0.00;0.62;3.40;2.90;;;30.70;19.10;;;;;;2244730;61;20474;-65
2023/06/15 06:54:39;0.00;0.00;0.62;0.00;0.00;0.62;3.97;3.37;;;30.70;19.10;;;;;;2247564;61;20391;-64
2023/06/15 06:57:23;0.00;0.00;0.62;0.00;0.00;0.62;3.83;3.37;;;30.70;19.10;;;;;;2248283;61;20424;-65
2023/06/15 07:00:12;0.00;0.00;0.62;0.00;0.00;0.62;3.57;3.27;;;30.70;19.10;;;;;;2247538;61;20759;-66
2023/06/15 07:02:56;0.00;0.00;0.62;0.00;0.00;0.62;3.57;3.27;;;30.70;19.10;;;;;;2247389;61;20790;-65
2023/06/15 07:05:42;0.00;0.00;0.62;0.00;0.00;0.62;4.10;3.50;;;30.70;19.10;;;;;;2248213;61;20399;-65
2023/06/15 07:08:27;0.00;0.00;0.62;0.00;0.00;0.62;3.00;2.70;;;30.70;19.10;;;;;;2247752;61;20363;-65
2023/06/15 07:11:12;0.00;0.00;0.62;0.00;0.00;0.62;4.03;3.23;;;30.70;19.10;;;;;;2247867;61;20479;-65
2023/06/15 07:13:57;0.00;0.00;0.62;0.00;0.00;0.62;2.90;2.60;;;30.70;19.10;;;;;;2247873;61;20384;-65
2023/06/15 07:16:43;0.00;0.00;0.62;0.00;0.00;0.62;3.27;2.90;;;30.70;19.10;;;;;;2247904;61;20415;-67
2023/06/15 07:19:28;0.00;0.00;0.62;0.00;0.00;0.62;3.40;2.60;;;30.70;19.10;;;;;;2248207;61;20406;-65
2023/06/15 07:22:12;0.00;0.00;0.62;0.00;0.00;0.62;4.00;3.60;;;30.70;19.10;;;;;;2247213;61;20431;-66
2023/06/15 07:24:58;0.00;0.00;0.62;0.00;0.00;0.62;3.30;3.00;;;30.70;19.10;;;;;;2247813;61;20391;-65
2023/06/15 07:27:42;0.00;0.00;0.62;0.00;0.00;0.62;3.50;3.20;;;30.70;19.00;;;;;;2247969;61;20819;-65
2023/06/15 07:30:27;0.00;0.00;0.62;0.00;0.00;0.62;3.37;3.07;;;30.70;19.00;;;;;;2247695;61;20366;-69
2023/06/15 07:33:14;0.00;0.00;0.62;0.00;0.00;0.62;3.27;2.70;;;30.70;19.00;;;;;;2247209;61;20363;-65
2023/06/15 07:35:58;0.00;0.00;0.62;0.00;0.00;0.62;3.63;2.90;;;30.70;19.00;;;;;;2244923;61;20872;-65
2023/06/15 07:38:43;0.00;0.00;0.62;0.00;0.00;0.62;3.03;2.70;;;30.70;19.60;;;;;;2247828;61;20826;-65
2023/06/15 07:41:27;0.00;0.00;0.62;0.00;0.00;0.62;3.93;3.53;;;30.70;19.00;;;;;;2247671;61;20516;-65
2023/06/15 07:44:14;0.00;0.00;0.62;0.00;0.00;0.62;2.83;2.53;;;30.70;19.00;;;;;;2247740;61;20763;-65
2023/06/15 07:46:58;0.00;0.00;0.62;0.00;0.00;0.62;2.93;2.63;;;30.70;19.00;;;;;;2247729;61;20382;-65
2023/06/15 07:49:44;0.00;0.00;0.62;0.00;0.00;0.62;3.37;2.77;;;30.70;19.00;;;;;;2247858;61;20364;-65
2023/06/15 07:52:29;0.00;0.00;0.62;0.00;0.00;0.62;3.30;3.00;;;30.70;19.00;;;;;;2242863;61;21112;-65
2023/06/15 07:55:14;0.00;0.00;0.62;0.00;0.00;0.62;3.40;3.00;;;30.70;19.00;;;;;;2243730;61;20392;-65
2023/06/15 07:57:59;0.00;0.00;0.62;0.00;0.00;0.62;3.17;2.87;;;30.70;19.10;;;;;;2243955;61;20380;-64
2023/06/15 08:00:44;0.00;0.00;0.62;0.00;0.00;0.62;3.27;2.90;;;30.70;19.10;;;;;;2243678;61;20428;-65
2023/06/15 08:03:28;0.00;0.00;0.62;0.00;0.00;0.62;4.17;3.47;;;30.70;19.10;;;;;;2243374;61;20448;-65
2023/06/15 08:06:14;0.00;0.00;0.62;0.00;0.00;0.62;3.03;2.67;;;30.70;19.10;;;;;;2243879;61;20785;-65
2023/06/15 08:08:59;0.00;0.00;0.62;0.00;0.00;0.62;3.30;3.00;;;30.70;19.10;;;;;;2243400;61;20377;-66
2023/06/15 08:11:44;0.00;0.00;0.62;0.00;0.00;0.62;3.30;2.67;;;30.70;19.10;;;;;;2243513;61;20812;-64
2023/06/15 08:14:29;0.00;0.00;0.62;0.00;0.00;0.62;3.30;2.60;;;30.70;19.10;;;;;;2243599;61;20416;-65
2023/06/15 08:17:13;0.00;0.00;0.62;0.00;0.00;0.62;3.30;2.97;;;30.70;19.10;;;;;;2243408;61;20427;-64
2023/06/15 08:20:00;0.00;0.00;0.62;0.00;0.00;0.62;3.10;2.77;;;30.70;19.10;;;;;;2243841;61;20420;-65
2023/06/15 08:22:46;0.00;0.00;0.62;0.00;0.00;0.62;3.60;3.00;;;30.80;19.10;;;;;;2243130;61;20970;-65
2023/06/15 08:25:34;0.00;0.00;0.62;0.00;0.00;0.62;2.67;2.47;;;30.80;19.20;;;;;;2243790;61;20365;-65
2023/06/15 08:28:19;0.00;0.00;0.62;0.00;0.00;0.62;2.97;2.67;;;30.80;19.20;;;;;;2243866;61;20365;-65
2023/06/15 08:31:03;0.00;0.00;0.62;0.00;0.00;0.62;3.13;2.77;;;30.70;19.10;;;;;;2243569;61;20402;-65
2023/06/15 08:33:48;0.00;0.00;0.62;0.00;0.00;0.62;3.50;2.77;;;30.80;19.10;;;;;;2243515;61;20455;-65
2023/06/15 08:36:32;0.00;0.00;0.62;0.00;0.00;0.62;3.47;3.00;;;30.80;19.10;;;;;;2243637;61;20914;-65
2023/06/15 08:39:18;0.00;0.00;0.62;0.00;0.00;0.62;2.60;2.40;;;30.80;19.10;;;;;;2243353;61;20420;-64
2023/06/15 08:42:03;0.00;0.00;0.62;0.00;0.00;0.62;2.50;2.30;;;30.80;19.10;;;;;;2243577;61;20428;-65
2023/06/15 08:44:52;0.00;0.00;0.62;0.00;0.00;0.62;2.90;2.63;;;30.80;19.10;;;;;;2243690;61;21039;-65
2023/06/15 08:47:37;0.00;0.00;0.62;0.00;0.00;0.62;2.67;2.47;;;30.80;19.10;;;;;;2244334;61;20391;-65
2023/06/15 08:50:22;0.00;0.00;0.62;0.00;0.00;0.62;4.17;2.47;;;30.80;19.10;;;;;;2247938;61;20423;-65
2023/06/15 08:53:08;0.00;0.00;0.62;0.00;0.00;0.62;3.27;2.73;;;30.80;19.10;;;;;;2243560;61;20574;-65
2023/06/15 08:55:55;0.00;0.00;0.62;0.00;0.00;0.62;3.43;3.13;;;30.80;19.10;;;;;;2243759;61;20469;-67
2023/06/15 08:58:41;0.00;0.00;0.62;0.00;0.00;0.62;3.97;2.60;;;30.80;19.10;;;;;;2244447;61;20465;-64
2023/06/15 09:01:29;0.00;0.00;0.62;0.00;0.00;0.62;2.80;2.57;;;30.80;19.10;;;;;;2243663;61;20435;-64
2023/06/15 09:04:17;0.00;0.00;0.62;0.00;0.00;0.62;3.37;2.77;;;30.80;19.10;;;;;;2244574;61;20365;-66
2023/06/15 09:07:03;0.00;0.00;0.62;0.00;0.00;0.62;2.90;2.40;;;30.80;19.00;;;;;;2244532;61;20756;-65
2023/06/15 09:10:11;0.00;0.00;0.62;0.00;0.00;0.62;3.00;2.70;;;30.80;19.00;;;;;;2244255;61;20621;-65
2023/06/15 09:12:58;0.00;0.00;0.62;0.00;0.00;0.62;2.90;2.60;;;30.80;19.00;;;;;;2244021;61;20887;-64
2023/06/15 09:15:50;0.00;0.00;0.62;0.00;0.00;0.62;3.07;2.57;;;30.80;19.00;;;;;;2243495;61;20690;-65
2023/06/15 09:18:46;0.00;0.00;0.62;0.00;0.00;0.62;2.97;2.67;;;30.80;19.00;;;;;;2244414;61;20787;-66
2023/06/15 09:21:31;0.00;0.00;0.62;0.00;0.00;0.62;3.60;2.77;;;30.80;19.00;;;;;;2243799;61;20480;-65
2023/06/15 09:24:17;0.00;0.00;0.62;0.00;0.00;0.62;3.10;2.33;;;30.80;18.90;;;;;;2243985;61;20444;-65
2023/06/15 09:27:13;0.00;0.00;0.62;0.00;0.00;0.62;2.67;2.30;;;30.80;18.90;;;;;;2244539;61;20435;-65
2023/06/15 09:30:03;0.00;0.00;0.62;0.00;0.00;0.62;2.97;2.67;;;30.80;18.90;;;;;;2244195;61;20393;-65
2023/06/15 09:32:48;0.00;0.00;0.62;0.00;0.00;0.62;2.57;2.37;;;30.80;18.90;;;;;;2243974;61;20447;-67
2023/06/15 09:35:33;0.00;0.00;0.62;0.00;0.00;0.62;3.23;2.83;;;30.80;18.90;;;;;;2244131;61;20922;-65
2023/06/15 09:38:17;0.00;0.00;0.62;0.00;0.00;0.62;2.50;2.10;;;30.80;18.80;;;;;;2244517;61;20364;-65
2023/06/15 09:41:04;0.00;0.00;0.62;0.00;0.00;0.62;3.00;2.70;;;30.80;18.80;;;;;;2244523;61;20392;-65
2023/06/15 09:43:48;0.00;0.00;0.62;0.00;0.00;0.62;3.00;2.70;;;30.80;18.80;;;;;;2243428;61;20412;-65
2023/06/15 09:46:38;0.00;0.00;0.62;0.00;0.00;0.62;3.83;2.30;;;30.80;18.80;;;;;;2244627;61;20500;-70
2023/06/15 09:49:25;0.00;0.00;0.62;0.00;0.00;0.62;3.10;2.80;;;30.90;18.80;;;;;;2248318;61;20376;-65
2023/06/15 09:52:12;0.00;0.00;0.62;0.00;0.00;0.62;3.60;2.33;;;30.90;18.80;;;;;;2246248;61;20468;-65
2023/06/15 09:54:57;0.00;0.00;0.62;0.00;0.00;0.62;2.93;2.50;;;30.80;18.70;;;;;;2244423;61;20377;-65
2023/06/15 09:57:42;0.00;0.00;0.62;0.00;0.00;0.62;3.00;2.57;;;30.80;18.80;;;;;;2244028;61;20384;-65
2023/06/15 10:00:27;0.00;0.00;0.62;0.00;0.00;0.62;4.33;3.00;;;30.90;19.30;;;;;;2244191;61;20776;-65
2023/06/15 10:03:21;0.00;0.00;0.62;0.00;0.00;0.62;2.73;2.43;;;30.90;18.70;;;;;;2244101;61;20586;-65
2023/06/15 10:06:16;0.00;0.00;0.62;0.00;0.00;0.62;2.83;2.60;;;30.90;18.70;;;;;;2244062;61;20424;-65
2023/06/15 10:09:06;0.00;0.00;0.62;0.00;0.00;0.62;3.00;2.70;;;30.90;18.80;;;;;;2243876;61;20938;-65
2023/06/15 10:11:57;0.00;0.00;0.62;0.00;0.00;0.62;2.83;2.47;;;30.90;18.70;;;;;;2243835;61;20942;-65
2023/06/15 10:14:51;0.00;0.00;0.62;0.00;0.00;0.62;2.53;2.33;;;30.90;18.70;;;;;;2243900;61;20393;-65
2023/06/15 10:17:40;0.00;0.00;0.62;0.00;0.00;0.62;2.80;2.43;;;30.90;18.70;;;;;;2244386;61;20369;-65
2023/06/15 10:20:28;0.00;0.00;0.62;0.00;0.00;0.62;2.60;2.40;;;30.90;18.70;;;;;;2244110;61;20383;-65
2023/06/15 10:23:16;0.00;0.00;0.62;0.00;0.00;0.62;3.30;2.40;;;30.90;18.70;;;;;;2243501;61;20408;-64
2023/06/15 10:26:02;0.00;0.00;0.62;0.00;0.00;0.62;2.87;2.57;;;30.90;18.70;;;;;;2244377;61;20368;-65
2023/06/15 10:28:57;0.00;0.00;0.62;0.00;0.00;0.62;2.80;2.60;;;30.90;18.70;;;;;;2243779;61;20389;-65
2023/06/15 10:31:49;0.00;0.00;0.62;0.00;0.00;0.62;2.50;2.30;;;30.90;18.70;;;;;;2243696;61;20433;-65
2023/06/15 10:34:40;0.00;0.00;0.62;0.00;0.00;0.62;3.20;2.90;;;30.90;18.70;;;;;;2243954;61;20904;-65
2023/06/15 10:37:35;0.00;0.00;0.62;0.00;0.00;0.62;2.23;2.00;;;31.00;18.80;;;;;;2244024;61;20389;-65
2023/06/15 10:40:31;0.00;0.00;0.62;0.00;0.00;0.62;3.87;2.77;;;31.00;18.70;;;;;;2244355;61;20364;-65
2023/06/15 10:43:20;0.00;0.00;0.62;0.00;0.00;0.62;3.20;2.90;;;31.00;18.70;;;;;;2243510;61;20926;-65
2023/06/15 10:46:06;0.00;0.00;0.62;0.00;0.00;0.62;3.30;3.00;;;31.00;18.70;;;;;;2243964;61;20361;-65
2023/06/15 10:48:53;0.00;0.00;0.62;0.00;0.00;0.62;3.10;2.60;;;31.00;18.70;;;;;;2236497;61;20912;-65
2023/06/15 10:51:41;0.00;0.00;0.62;0.00;0.00;0.62;2.93;2.63;;;31.00;18.70;;;;;;2243832;61;20404;-65
2023/06/15 10:54:28;0.00;0.00;0.62;0.00;0.00;0.62;4.00;2.80;;;31.00;18.70;;;;;;2248055;61;20391;-65
2023/06/15 10:57:18;0.00;0.00;0.62;0.00;0.00;0.62;3.17;2.67;;;31.00;18.70;;;;;;2247927;61;20372;-65